sensor_id;sensor_type;location;lat;lon;timestamp;pressure;altitude;pressure_sealevel;temperature;humidity
59829;BME280;45708;51.848;107.620;2022-08-21T00:00:42;94128.16;;;12.99;66.85
59829;BME280;45708;51.848;107.620;2022-08-21T00:05:47;94132.47;;;13.15;66.16
59829;BME280;45708;51.848;107.620;2022-08-21T00:10:49;94133.09;;;13.22;66.31
59829;BME280;45708;51.848;107.620;2022-08-21T00:15:51;94136.38;;;13.50;65.66
59829;BME280;45708;51.848;107.620;2022-08-21T00:20:52;94146.25;;;13.64;65.16
59829;BME280;45708;51.848;107.620;2022-08-21T00:25:52;94148.66;;;13.66;65.05
59829;BME280;45708;51.848;107.620;2022-08-21T00:30:53;94147.00;;;13.55;64.18
59829;BME280;45708;51.848;107.620;2022-08-21T00:35:54;94149.16;;;13.58;63.50
59829;BME280;45708;51.848;107.620;2022-08-21T00:40:59;94155.06;;;13.80;62.39
59829;BME280;45708;51.848;107.620;2022-08-21T00:46:01;94144.94;;;13.72;62.22
59829;BME280;45708;51.848;107.620;2022-08-21T00:51:19;94151.34;;;13.81;62.04
59829;BME280;45708;51.848;107.620;2022-08-21T00:56:22;94161.41;;;13.74;61.97
59829;BME280;45708;51.848;107.620;2022-08-21T01:01:24;94163.56;;;13.82;61.49
59829;BME280;45708;51.848;107.620;2022-08-21T01:06:25;94157.75;;;14.00;61.21
59829;BME280;45708;51.848;107.620;2022-08-21T01:11:26;94161.75;;;13.98;61.07
59829;BME280;45708;51.848;107.620;2022-08-21T01:16:27;94174.00;;;14.09;60.62
59829;BME280;45708;51.848;107.620;2022-08-21T01:21:28;94153.53;;;14.20;60.39
59829;BME280;45708;51.848;107.620;2022-08-21T01:26:32;94166.34;;;14.89;58.52
59829;BME280;45708;51.848;107.620;2022-08-21T01:31:33;94167.81;;;15.41;56.82
59829;BME280;45708;51.848;107.620;2022-08-21T01:36:34;94167.69;;;15.81;55.74
59829;BME280;45708;51.848;107.620;2022-08-21T01:41:35;94179.75;;;16.18;54.86
59829;BME280;45708;51.848;107.620;2022-08-21T01:46:36;94178.16;;;16.22;54.25
59829;BME280;45708;51.848;107.620;2022-08-21T01:51:37;94175.97;;;16.29;53.92
59829;BME280;45708;51.848;107.620;2022-08-21T01:56:40;94185.47;;;16.46;53.54
59829;BME280;45708;51.848;107.620;2022-08-21T02:01:42;94197.72;;;16.47;53.63
59829;BME280;45708;51.848;107.620;2022-08-21T02:06:43;94194.09;;;16.32;54.20
59829;BME280;45708;51.848;107.620;2022-08-21T02:11:44;94183.56;;;16.90;52.68
59829;BME280;45708;51.848;107.620;2022-08-21T02:16:45;94182.09;;;17.85;50.95
59829;BME280;45708;51.848;107.620;2022-08-21T02:21:46;94183.75;;;17.28;50.40
59829;BME280;45708;51.848;107.620;2022-08-21T02:26:47;94201.28;;;15.82;54.41
59829;BME280;45708;51.848;107.620;2022-08-21T02:31:48;94209.59;;;14.18;59.38
59829;BME280;45708;51.848;107.620;2022-08-21T02:36:48;94197.19;;;13.61;60.68
59829;BME280;45708;51.848;107.620;2022-08-21T02:41:49;94206.84;;;13.83;60.51
59829;BME280;45708;51.848;107.620;2022-08-21T02:46:50;94203.78;;;14.31;59.66
59829;BME280;45708;51.848;107.620;2022-08-21T02:51:51;94196.91;;;15.22;57.96
59829;BME280;45708;51.848;107.620;2022-08-21T02:56:51;94192.53;;;15.57;55.80
59829;BME280;45708;51.848;107.620;2022-08-21T03:01:52;94203.47;;;15.65;54.88
59829;BME280;45708;51.848;107.620;2022-08-21T03:06:54;94198.44;;;16.13;53.25
59829;BME280;45708;51.848;107.620;2022-08-21T03:11:55;94202.56;;;16.79;51.98
59829;BME280;45708;51.848;107.620;2022-08-21T03:16:56;94199.41;;;17.34;50.27
59829;BME280;45708;51.848;107.620;2022-08-21T03:21:57;94198.25;;;17.17;50.05
59829;BME280;45708;51.848;107.620;2022-08-21T03:26:58;94222.53;;;16.47;50.58
59829;BME280;45708;51.848;107.620;2022-08-21T03:31:58;94208.28;;;15.48;52.82
59829;BME280;45708;51.848;107.620;2022-08-21T03:36:59;94242.94;;;14.87;54.92
59829;BME280;45708;51.848;107.620;2022-08-21T03:42:00;94239.47;;;14.97;55.34
59829;BME280;45708;51.848;107.620;2022-08-21T03:47:01;94232.31;;;14.82;56.02
59829;BME280;45708;51.848;107.620;2022-08-21T03:52:04;94238.16;;;14.84;56.06
59829;BME280;45708;51.848;107.620;2022-08-21T03:57:05;94244.53;;;14.88;55.99
59829;BME280;45708;51.848;107.620;2022-08-21T04:02:06;94236.03;;;15.06;55.41
59829;BME280;45708;51.848;107.620;2022-08-21T04:07:07;94246.66;;;14.66;56.53
59829;BME280;45708;51.848;107.620;2022-08-21T04:12:08;94238.53;;;14.20;57.94
59829;BME280;45708;51.848;107.620;2022-08-21T04:17:09;94241.75;;;14.22;58.32
59829;BME280;45708;51.848;107.620;2022-08-21T04:22:10;94236.53;;;14.52;57.52
59829;BME280;45708;51.848;107.620;2022-08-21T04:27:11;94235.50;;;14.89;56.20
59829;BME280;45708;51.848;107.620;2022-08-21T04:32:12;94217.38;;;15.27;54.29
59829;BME280;45708;51.848;107.620;2022-08-21T04:37:12;94216.69;;;15.91;52.63
59829;BME280;45708;51.848;107.620;2022-08-21T04:42:13;94226.72;;;16.09;52.00
59829;BME280;45708;51.848;107.620;2022-08-21T04:47:14;94209.13;;;16.13;51.79
59829;BME280;45708;51.848;107.620;2022-08-21T04:52:19;94218.91;;;16.72;50.33
59829;BME280;45708;51.848;107.620;2022-08-21T04:57:21;94223.22;;;16.13;52.39
59829;BME280;45708;51.848;107.620;2022-08-21T05:02:22;94232.28;;;15.17;56.19
59829;BME280;45708;51.848;107.620;2022-08-21T05:07:26;94238.56;;;14.30;61.07
59829;BME280;45708;51.848;107.620;2022-08-21T05:12:28;94234.81;;;14.21;62.64
59829;BME280;45708;51.848;107.620;2022-08-21T05:17:31;94221.91;;;14.45;62.71
59829;BME280;45708;51.848;107.620;2022-08-21T05:22:32;94213.69;;;14.82;61.98
59829;BME280;45708;51.848;107.620;2022-08-21T05:27:33;94224.03;;;14.94;61.15
59829;BME280;45708;51.848;107.620;2022-08-21T05:32:34;94206.72;;;15.21;60.57
59829;BME280;45708;51.848;107.620;2022-08-21T05:37:35;94214.59;;;15.77;58.34
59829;BME280;45708;51.848;107.620;2022-08-21T05:42:36;94201.19;;;16.03;56.55
59829;BME280;45708;51.848;107.620;2022-08-21T05:47:37;94207.88;;;15.90;56.56
59829;BME280;45708;51.848;107.620;2022-08-21T05:52:37;94212.28;;;15.45;57.14
59829;BME280;45708;51.848;107.620;2022-08-21T05:57:39;94208.31;;;15.33;57.84
59829;BME280;45708;51.848;107.620;2022-08-21T06:02:40;94212.28;;;15.40;56.29
59829;BME280;45708;51.848;107.620;2022-08-21T06:07:41;94216.88;;;14.94;55.39
59829;BME280;45708;51.848;107.620;2022-08-21T06:12:42;94220.59;;;14.68;56.27
59829;BME280;45708;51.848;107.620;2022-08-21T06:17:43;94215.28;;;14.83;56.28
59829;BME280;45708;51.848;107.620;2022-08-21T06:22:44;94205.69;;;15.07;55.99
59829;BME280;45708;51.848;107.620;2022-08-21T06:27:45;94217.88;;;15.34;55.51
59829;BME280;45708;51.848;107.620;2022-08-21T06:32:46;94219.16;;;15.57;54.85
59829;BME280;45708;51.848;107.620;2022-08-21T06:37:47;94235.09;;;15.77;54.40
59829;BME280;45708;51.848;107.620;2022-08-21T06:42:48;94238.81;;;15.76;54.00
59829;BME280;45708;51.848;107.620;2022-08-21T06:47:49;94233.81;;;15.59;54.94
59829;BME280;45708;51.848;107.620;2022-08-21T06:53:01;94238.94;;;15.00;56.64
59829;BME280;45708;51.848;107.620;2022-08-21T06:58:04;94235.50;;;14.84;57.38
59829;BME280;45708;51.848;107.620;2022-08-21T07:03:05;94248.78;;;14.84;57.14
59829;BME280;45708;51.848;107.620;2022-08-21T07:08:06;94242.69;;;14.83;56.91
59829;BME280;45708;51.848;107.620;2022-08-21T07:13:06;94246.09;;;14.58;57.15
59829;BME280;45708;51.848;107.620;2022-08-21T07:18:07;94242.81;;;14.26;57.93
59829;BME280;45708;51.848;107.620;2022-08-21T07:23:24;94232.69;;;14.13;58.08
59829;BME280;45708;51.848;107.620;2022-08-21T07:28:27;94242.03;;;14.30;57.97
59829;BME280;45708;51.848;107.620;2022-08-21T07:33:31;94205.44;;;14.73;56.09
59829;BME280;45708;51.848;107.620;2022-08-21T07:38:33;94221.84;;;15.41;54.73
59829;BME280;45708;51.848;107.620;2022-08-21T07:43:34;94225.03;;;15.48;54.29
59829;BME280;45708;51.848;107.620;2022-08-21T07:48:35;94210.72;;;15.19;54.34
59829;BME280;45708;51.848;107.620;2022-08-21T07:53:37;94223.25;;;15.08;54.74
59829;BME280;45708;51.848;107.620;2022-08-21T07:58:38;94221.38;;;15.09;54.62
59829;BME280;45708;51.848;107.620;2022-08-21T08:03:39;94231.19;;;15.34;53.83
59829;BME280;45708;51.848;107.620;2022-08-21T08:08:41;94238.63;;;15.42;53.49
59829;BME280;45708;51.848;107.620;2022-08-21T08:13:45;94248.19;;;15.38;53.16
59829;BME280;45708;51.848;107.620;2022-08-21T08:18:46;94239.97;;;15.29;53.36
59829;BME280;45708;51.848;107.620;2022-08-21T08:23:48;94242.34;;;15.41;53.06
59829;BME280;45708;51.848;107.620;2022-08-21T08:28:49;94253.03;;;15.26;53.36
59829;BME280;45708;51.848;107.620;2022-08-21T08:33:50;94241.34;;;15.11;53.50
59829;BME280;45708;51.848;107.620;2022-08-21T08:38:50;94248.78;;;14.84;53.91
59829;BME280;45708;51.848;107.620;2022-08-21T08:44:00;94252.47;;;14.52;54.50
59829;BME280;45708;51.848;107.620;2022-08-21T08:54:52;94265.63;;;14.17;57.39
59829;BME280;45708;51.848;107.620;2022-08-21T08:59:59;94257.31;;;13.88;58.16
59829;BME280;45708;51.848;107.620;2022-08-21T09:05:00;94256.00;;;14.00;57.96
59829;BME280;45708;51.848;107.620;2022-08-21T09:10:13;94256.06;;;14.16;57.12
59829;BME280;45708;51.848;107.620;2022-08-21T09:15:43;94263.56;;;14.29;56.73
59829;BME280;45708;51.848;107.620;2022-08-21T09:26:16;94262.03;;;14.43;56.56
59829;BME280;45708;51.848;107.620;2022-08-21T09:31:34;94277.97;;;14.43;57.19
59829;BME280;45708;51.848;107.620;2022-08-21T09:41:41;94269.50;;;14.97;55.92
59829;BME280;45708;51.848;107.620;2022-08-21T09:46:50;94273.78;;;15.24;55.04
59829;BME280;45708;51.848;107.620;2022-08-21T09:51:52;94266.84;;;15.38;54.25
59829;BME280;45708;51.848;107.620;2022-08-21T09:57:23;94262.03;;;15.55;52.21
59829;BME280;45708;51.848;107.620;2022-08-21T10:02:31;94260.94;;;15.56;51.85
59829;BME280;45708;51.848;107.620;2022-08-21T10:07:36;94279.59;;;15.41;52.53
59829;BME280;45708;51.848;107.620;2022-08-21T10:23:28;94286.53;;;14.96;53.57
59829;BME280;45708;51.848;107.620;2022-08-21T10:28:47;94293.69;;;14.80;53.90
59829;BME280;45708;51.848;107.620;2022-08-21T10:44:33;94283.81;;;14.55;54.79
59829;BME280;45708;51.848;107.620;2022-08-21T10:49:39;94291.56;;;14.62;54.41
59829;BME280;45708;51.848;107.620;2022-08-21T10:54:49;94288.69;;;14.84;53.92
59829;BME280;45708;51.848;107.620;2022-08-21T11:00:00;94291.59;;;14.82;52.88
59829;BME280;45708;51.848;107.620;2022-08-21T11:05:16;94307.03;;;14.85;52.66
59829;BME280;45708;51.848;107.620;2022-08-21T11:10:33;94311.00;;;14.83;52.28
59829;BME280;45708;51.848;107.620;2022-08-21T11:15:53;94303.53;;;14.75;52.09
59829;BME280;45708;51.848;107.620;2022-08-21T11:26:07;94316.25;;;14.52;52.86
59829;BME280;45708;51.848;107.620;2022-08-21T11:31:31;94316.25;;;14.47;52.82
59829;BME280;45708;51.848;107.620;2022-08-21T11:47:45;94304.81;;;13.84;55.27
59829;BME280;45708;51.848;107.620;2022-08-21T11:52:44;94332.56;;;13.66;55.80
59829;BME280;45708;51.848;107.620;2022-08-21T12:02:53;94342.50;;;13.17;57.33
59829;BME280;45708;51.848;107.620;2022-08-21T12:08:37;94361.16;;;12.95;57.95
59829;BME280;45708;51.848;107.620;2022-08-21T12:13:51;94357.25;;;12.76;59.23
59829;BME280;45708;51.848;107.620;2022-08-21T12:19:06;94368.00;;;12.64;59.69
59829;BME280;45708;51.848;107.620;2022-08-21T12:34:46;94375.50;;;12.24;61.45
59829;BME280;45708;51.848;107.620;2022-08-21T12:39:51;94389.13;;;12.15;62.39
59829;BME280;45708;51.848;107.620;2022-08-21T12:45:00;94387.41;;;12.04;62.65
59829;BME280;45708;51.848;107.620;2022-08-21T12:50:15;94407.63;;;12.10;63.24
59829;BME280;45708;51.848;107.620;2022-08-21T12:55:29;94407.13;;;12.13;63.88
59829;BME280;45708;51.848;107.620;2022-08-21T13:00:31;94414.19;;;12.08;63.49
59829;BME280;45708;51.848;107.620;2022-08-21T13:05:34;94414.34;;;12.01;64.15
59829;BME280;45708;51.848;107.620;2022-08-21T13:10:36;94417.44;;;11.93;64.23
59829;BME280;45708;51.848;107.620;2022-08-21T13:15:41;94370.16;;;11.46;64.86
59829;BME280;45708;51.848;107.620;2022-08-21T13:20:42;94425.59;;;11.75;65.07
59829;BME280;45708;51.848;107.620;2022-08-21T13:25:43;94435.38;;;11.74;65.23
59829;BME280;45708;51.848;107.620;2022-08-21T13:30:53;94439.72;;;11.80;66.48
59829;BME280;45708;51.848;107.620;2022-08-21T13:36:05;94440.94;;;11.90;66.07
59829;BME280;45708;51.848;107.620;2022-08-21T13:46:18;94446.22;;;12.06;65.33
59829;BME280;45708;51.848;107.620;2022-08-21T13:51:22;94437.84;;;12.14;65.53
59829;BME280;45708;51.848;107.620;2022-08-21T13:56:26;94444.34;;;12.24;65.77
59829;BME280;45708;51.848;107.620;2022-08-21T14:01:31;94449.25;;;12.37;65.65
59829;BME280;45708;51.848;107.620;2022-08-21T14:06:35;94447.50;;;12.42;65.53
59829;BME280;45708;51.848;107.620;2022-08-21T14:11:38;94443.97;;;12.37;65.98
59829;BME280;45708;51.848;107.620;2022-08-21T14:16:56;94447.94;;;12.17;66.64
59829;BME280;45708;51.848;107.620;2022-08-21T14:21:59;94447.41;;;11.99;66.46
59829;BME280;45708;51.848;107.620;2022-08-21T14:27:07;94452.16;;;11.97;67.15
59829;BME280;45708;51.848;107.620;2022-08-21T14:32:14;94463.53;;;11.97;67.95
59829;BME280;45708;51.848;107.620;2022-08-21T14:37:16;94456.72;;;11.68;67.82
59829;BME280;45708;51.848;107.620;2022-08-21T14:42:17;94474.91;;;11.64;68.09
59829;BME280;45708;51.848;107.620;2022-08-21T14:47:18;94461.69;;;11.64;68.40
59829;BME280;45708;51.848;107.620;2022-08-21T14:58:17;94479.41;;;11.97;66.93
59829;BME280;45708;51.848;107.620;2022-08-21T15:03:18;94484.31;;;12.05;67.29
59829;BME280;45708;51.848;107.620;2022-08-21T15:08:19;94444.38;;;11.90;67.44
59829;BME280;45708;51.848;107.620;2022-08-21T15:13:21;94477.97;;;12.06;67.72
59829;BME280;45708;51.848;107.620;2022-08-21T15:18:24;94478.84;;;11.95;68.43
59829;BME280;45708;51.848;107.620;2022-08-21T15:23:25;94460.53;;;11.60;68.63
59829;BME280;45708;51.848;107.620;2022-08-21T15:28:27;94493.69;;;11.79;68.75
59829;BME280;45708;51.848;107.620;2022-08-21T15:33:28;94505.53;;;11.77;68.79
59829;BME280;45708;51.848;107.620;2022-08-21T15:38:29;94507.28;;;11.83;68.98
59829;BME280;45708;51.848;107.620;2022-08-21T15:43:53;94521.69;;;11.92;68.33
59829;BME280;45708;51.848;107.620;2022-08-21T15:48:53;94509.34;;;11.81;69.17
59829;BME280;45708;51.848;107.620;2022-08-21T15:53:54;94508.31;;;11.53;70.25
59829;BME280;45708;51.848;107.620;2022-08-21T15:59:02;94537.25;;;11.43;72.42
59829;BME280;45708;51.848;107.620;2022-08-21T16:04:03;94520.03;;;11.01;73.15
59829;BME280;45708;51.848;107.620;2022-08-21T16:09:05;94540.91;;;10.85;74.36
59829;BME280;45708;51.848;107.620;2022-08-21T16:14:06;94541.06;;;10.67;75.30
59829;BME280;45708;51.848;107.620;2022-08-21T16:19:07;94542.66;;;10.56;76.42
59829;BME280;45708;51.848;107.620;2022-08-21T16:24:08;94520.31;;;10.35;76.80
59829;BME280;45708;51.848;107.620;2022-08-21T16:29:09;94552.66;;;10.54;77.68
59829;BME280;45708;51.848;107.620;2022-08-21T16:34:15;94544.31;;;10.46;78.58
59829;BME280;45708;51.848;107.620;2022-08-21T16:39:17;94566.09;;;10.53;78.64
59829;BME280;45708;51.848;107.620;2022-08-21T16:44:18;94558.53;;;10.45;79.97
59829;BME280;45708;51.848;107.620;2022-08-21T16:49:30;94554.88;;;10.46;81.33
59829;BME280;45708;51.848;107.620;2022-08-21T16:54:31;94564.97;;;10.49;81.55
59829;BME280;45708;51.848;107.620;2022-08-21T16:59:32;94557.03;;;10.49;81.48
59829;BME280;45708;51.848;107.620;2022-08-21T17:04:33;94549.81;;;10.44;82.09
59829;BME280;45708;51.848;107.620;2022-08-21T17:09:33;94557.81;;;10.61;82.13
59829;BME280;45708;51.848;107.620;2022-08-21T17:14:35;94510.22;;;10.32;83.38
59829;BME280;45708;51.848;107.620;2022-08-21T17:19:36;94540.72;;;10.52;83.37
59829;BME280;45708;51.848;107.620;2022-08-21T17:24:37;94544.97;;;10.53;83.27
59829;BME280;45708;51.848;107.620;2022-08-21T17:29:39;94555.53;;;10.53;83.19
59829;BME280;45708;51.848;107.620;2022-08-21T17:34:40;94549.13;;;10.25;83.32
59829;BME280;45708;51.848;107.620;2022-08-21T17:39:41;94581.66;;;10.19;84.48
59829;BME280;45708;51.848;107.620;2022-08-21T17:44:44;94568.34;;;10.14;84.60
59829;BME280;45708;51.848;107.620;2022-08-21T17:49:45;94543.00;;;9.90;85.11
59829;BME280;45708;51.848;107.620;2022-08-21T17:54:45;94473.50;;;9.31;84.84
59829;BME280;45708;51.848;107.620;2022-08-21T17:59:47;94577.28;;;9.90;85.91
59829;BME280;45708;51.848;107.620;2022-08-21T18:04:48;94578.31;;;9.89;85.46
59829;BME280;45708;51.848;107.620;2022-08-21T18:09:49;94580.16;;;9.88;85.55
59829;BME280;45708;51.848;107.620;2022-08-21T18:14:50;94574.59;;;9.78;85.65
59829;BME280;45708;51.848;107.620;2022-08-21T18:19:51;94438.81;;;8.92;85.65
59829;BME280;45708;51.848;107.620;2022-08-21T18:24:52;94582.44;;;9.85;85.79
59829;BME280;45708;51.848;107.620;2022-08-21T18:29:55;94509.44;;;9.43;86.14
59829;BME280;45708;51.848;107.620;2022-08-21T18:34:57;94510.94;;;9.51;86.48
59829;BME280;45708;51.848;107.620;2022-08-21T18:39:58;94579.56;;;9.98;86.37
59829;BME280;45708;51.848;107.620;2022-08-21T18:45:01;94579.72;;;10.03;86.61
59829;BME280;45708;51.848;107.620;2022-08-21T18:50:06;94506.34;;;9.58;87.31
59829;BME280;45708;51.848;107.620;2022-08-21T18:55:09;94544.03;;;9.89;87.16
59829;BME280;45708;51.848;107.620;2022-08-21T19:00:14;94582.59;;;10.13;86.69
59829;BME280;45708;51.848;107.620;2022-08-21T19:05:17;94561.69;;;10.00;86.86
59829;BME280;45708;51.848;107.620;2022-08-21T19:10:18;94585.13;;;10.08;86.70
59829;BME280;45708;51.848;107.620;2022-08-21T19:15:20;94556.63;;;9.87;87.09
59829;BME280;45708;51.848;107.620;2022-08-21T19:20:32;94590.75;;;10.12;86.40
59829;BME280;45708;51.848;107.620;2022-08-21T19:25:35;94582.47;;;10.08;86.32
59829;BME280;45708;51.848;107.620;2022-08-21T19:30:39;94567.75;;;10.00;85.93
59829;BME280;45708;51.848;107.620;2022-08-21T19:35:42;94513.59;;;9.63;86.74
59829;BME280;45708;51.848;107.620;2022-08-21T19:40:43;94548.59;;;9.82;86.50
59829;BME280;45708;51.848;107.620;2022-08-21T19:45:44;94567.75;;;9.89;87.16
59829;BME280;45708;51.848;107.620;2022-08-21T19:50:45;94575.56;;;9.95;87.53
59829;BME280;45708;51.848;107.620;2022-08-21T19:55:46;94465.50;;;9.26;87.01
59829;BME280;45708;51.848;107.620;2022-08-21T20:00:47;94595.22;;;10.11;87.15
59829;BME280;45708;51.848;107.620;2022-08-21T20:05:48;94597.38;;;10.14;87.31
59829;BME280;45708;51.848;107.620;2022-08-21T20:10:50;94592.81;;;10.10;87.25
59829;BME280;45708;51.848;107.620;2022-08-21T20:15:52;94556.53;;;9.82;87.78
59829;BME280;45708;51.848;107.620;2022-08-21T20:20:54;94553.28;;;9.80;88.21
59829;BME280;45708;51.848;107.620;2022-08-21T20:25:55;94586.03;;;10.02;87.74
59829;BME280;45708;51.848;107.620;2022-08-21T20:30:56;94594.94;;;10.01;87.82
59829;BME280;45708;51.848;107.620;2022-08-21T20:35:56;94587.88;;;10.01;88.03
59829;BME280;45708;51.848;107.620;2022-08-21T20:40:57;94600.16;;;10.07;87.92
59829;BME280;45708;51.848;107.620;2022-08-21T20:45:58;94541.91;;;9.67;88.15
59829;BME280;45708;51.848;107.620;2022-08-21T20:51:20;94589.22;;;9.92;88.54
59829;BME280;45708;51.848;107.620;2022-08-21T21:02:26;94606.06;;;9.91;88.28
59829;BME280;45708;51.848;107.620;2022-08-21T21:07:40;94585.66;;;9.87;88.31
59829;BME280;45708;51.848;107.620;2022-08-21T21:12:45;94601.50;;;9.98;88.69
59829;BME280;45708;51.848;107.620;2022-08-21T21:17:59;94570.72;;;9.81;88.57
59829;BME280;45708;51.848;107.620;2022-08-21T21:23:17;94550.28;;;9.64;88.17
59829;BME280;45708;51.848;107.620;2022-08-21T21:28:32;94581.06;;;9.82;87.89
59829;BME280;45708;51.848;107.620;2022-08-21T21:33:35;94597.94;;;9.93;88.31
59829;BME280;45708;51.848;107.620;2022-08-21T21:38:42;94587.56;;;9.80;88.45
59829;BME280;45708;51.848;107.620;2022-08-21T22:00:06;94626.66;;;9.71;88.37
59829;BME280;45708;51.848;107.620;2022-08-21T22:05:34;94628.16;;;9.79;87.97
59829;BME280;45708;51.848;107.620;2022-08-21T22:11:03;94641.50;;;9.84;88.52
59829;BME280;45708;51.848;107.620;2022-08-21T22:16:06;94627.00;;;9.74;87.60
59829;BME280;45708;51.848;107.620;2022-08-21T22:21:16;94630.09;;;9.71;88.34
59829;BME280;45708;51.848;107.620;2022-08-21T22:26:20;94548.50;;;9.17;88.11
59829;BME280;45708;51.848;107.620;2022-08-21T22:31:26;94647.38;;;9.86;88.15
59829;BME280;45708;51.848;107.620;2022-08-21T22:36:31;94650.63;;;10.11;88.23
59829;BME280;45708;51.848;107.620;2022-08-21T22:41:39;94539.53;;;10.01;87.02
59829;BME280;45708;51.848;107.620;2022-08-21T22:51:57;94664.59;;;12.54;85.53
59829;BME280;45708;51.848;107.620;2022-08-21T22:57:32;94649.22;;;13.06;82.02
59829;BME280;45708;51.848;107.620;2022-08-21T23:02:44;94675.81;;;13.72;83.57
59829;BME280;45708;51.848;107.620;2022-08-21T23:07:58;94656.63;;;13.65;83.22
59829;BME280;45708;51.848;107.620;2022-08-21T23:13:04;94659.09;;;13.50;82.93
59829;BME280;45708;51.848;107.620;2022-08-21T23:18:17;94670.16;;;13.90;81.13
59829;BME280;45708;51.848;107.620;2022-08-21T23:23:24;94657.44;;;14.46;79.71
59829;BME280;45708;51.848;107.620;2022-08-21T23:34:12;94674.41;;;16.75;71.17
59829;BME280;45708;51.848;107.620;2022-08-21T23:49:49;94660.75;;;18.86;63.42
